createdAt,value
2019-05-15T00:01:05.419Z,56.50
2019-05-15T00:04:10.350Z,56.60
2019-05-15T00:07:15.185Z,56.60
2019-05-15T00:10:20.248Z,56.50
2019-05-15T00:13:25.163Z,56.60
2019-05-15T00:16:30.294Z,56.40
2019-05-15T00:19:35.216Z,56.40
2019-05-15T00:22:40.132Z,56.80
2019-05-15T00:25:45.307Z,57.00
2019-05-15T00:30:08.756Z,57.10
2019-05-15T00:33:13.779Z,57.70
2019-05-15T00:43:08.813Z,57.60
2019-05-15T00:46:13.789Z,58.40
2019-05-15T00:49:19.008Z,58.70
2019-05-15T00:52:24.074Z,59.10
2019-05-15T00:55:29.054Z,59.30
2019-05-15T00:58:34.054Z,59.60
2019-05-15T01:01:39.238Z,59.70
2019-05-15T01:04:44.352Z,59.80
2019-05-15T01:07:49.297Z,60.00
2019-05-15T01:10:54.308Z,59.60
2019-05-15T01:13:59.183Z,59.70
2019-05-15T01:17:03.891Z,60.40
2019-05-15T01:20:09.603Z,60.40
2019-05-15T01:23:14.297Z,60.30
2019-05-15T01:26:19.081Z,59.70
2019-05-15T01:29:36.534Z,60.20
2019-05-15T01:32:30.567Z,61.20
2019-05-15T01:35:35.496Z,60.50
2019-05-15T01:38:40.436Z,61.00
2019-05-15T01:41:45.381Z,61.30
2019-05-15T01:44:50.304Z,61.10
2019-05-15T01:47:55.294Z,61.10
2019-05-15T01:51:00.469Z,61.10
2019-05-15T01:54:05.300Z,62.00
2019-05-15T01:57:10.550Z,61.10
2019-05-15T02:00:18.871Z,61.00
2019-05-15T02:03:23.686Z,60.80
2019-05-15T02:06:28.674Z,60.90
2019-05-15T02:09:33.752Z,61.40
2019-05-15T02:12:39.140Z,62.50
2019-05-15T02:15:44.194Z,62.60
2019-05-15T02:18:49.275Z,63.40
2019-05-15T02:21:54.164Z,64.10
2019-05-15T02:24:59.405Z,64.40
2019-05-15T02:28:04.837Z,64.50
2019-05-15T02:31:10.693Z,65.20
2019-05-15T02:34:19.206Z,65.20
2019-05-15T02:37:22.171Z,65.30
2019-05-15T02:40:29.454Z,65.00
2019-05-15T02:43:33.794Z,64.90
2019-05-15T02:46:39.237Z,65.50
2019-05-15T02:49:44.323Z,65.10
2019-05-15T02:52:49.878Z,64.80
2019-05-15T02:55:54.918Z,63.40
2019-05-15T02:59:00.178Z,62.50
2019-05-15T03:02:05.285Z,62.70
2019-05-15T03:05:10.349Z,64.30
2019-05-15T03:08:15.233Z,64.70
2019-05-15T03:11:20.403Z,64.80
2019-05-15T03:14:25.450Z,64.60
2019-05-15T03:17:30.534Z,64.70
2019-05-15T03:20:38.626Z,64.60
2019-05-15T03:23:42.275Z,64.50
2019-05-15T03:26:49.661Z,64.50
2019-05-15T03:29:53.694Z,64.50
2019-05-15T03:33:03.967Z,64.60
2019-05-15T03:36:05.283Z,64.60
2019-05-15T03:39:10.432Z,64.50
2019-05-15T03:42:15.373Z,64.60
2019-05-15T03:45:20.226Z,65.10
2019-05-15T03:48:25.168Z,65.30
2019-05-15T03:51:30.319Z,65.70
2019-05-15T03:54:38.963Z,65.90
2019-05-15T03:57:42.136Z,65.70
2019-05-15T04:00:49.870Z,66.10
2019-05-15T04:03:53.662Z,65.80
2019-05-15T04:07:00.143Z,65.40
2019-05-15T04:10:05.800Z,66.00
2019-05-15T04:13:10.799Z,66.10
2019-05-15T04:16:18.839Z,66.00
2019-05-15T04:19:22.396Z,66.30
2019-05-15T04:22:29.148Z,66.10
2019-05-15T04:25:34.799Z,65.70
2019-05-15T04:28:42.249Z,65.60
2019-05-15T04:31:58.932Z,65.60
2019-05-15T04:34:54.276Z,65.70
2019-05-15T04:37:59.886Z,65.50
2019-05-15T04:41:05.179Z,65.40
2019-05-15T04:44:10.527Z,64.10
2019-05-15T04:47:18.945Z,64.30
2019-05-15T04:50:23.654Z,63.80
2019-05-15T04:53:29.666Z,63.80
2019-05-15T04:56:35.774Z,63.90
2019-05-15T04:59:40.827Z,63.80
2019-05-15T05:02:45.765Z,63.80
2019-05-15T05:05:51.110Z,63.80
2019-05-15T05:08:59.474Z,63.80
2019-05-15T05:12:03.197Z,63.80
2019-05-15T05:15:08.554Z,63.70
2019-05-15T05:18:13.825Z,63.70
2019-05-15T05:21:18.770Z,63.70
2019-05-15T05:24:23.910Z,63.90
2019-05-15T05:27:28.940Z,64.10
2019-05-15T05:30:34.189Z,63.80
2019-05-15T05:33:39.309Z,64.00
2019-05-15T05:36:44.391Z,64.60
2019-05-15T05:39:49.585Z,64.70
2019-05-15T05:42:54.609Z,63.80
2019-05-15T05:45:59.874Z,64.00
2019-05-15T05:49:04.940Z,63.80
2019-05-15T05:52:10.140Z,64.00
2019-05-15T05:55:15.247Z,64.70
2019-05-15T05:58:20.244Z,65.30
2019-05-15T06:01:25.126Z,65.50
2019-05-15T06:04:30.026Z,65.30
2019-05-15T06:07:35.473Z,65.50
2019-05-15T06:10:40.519Z,65.60
2019-05-15T06:13:45.478Z,66.10
2019-05-15T06:16:50.706Z,66.40
2019-05-15T06:19:55.637Z,65.90
2019-05-15T06:23:00.538Z,65.60
2019-05-15T06:26:05.718Z,66.10
2019-05-15T06:29:11.933Z,66.10
2019-05-15T06:32:19.521Z,66.30
2019-05-15T06:35:23.695Z,66.40
2019-05-15T06:38:30.931Z,66.10
2019-05-15T06:41:35.822Z,66.10
2019-05-15T06:44:40.817Z,66.40
2019-05-15T06:47:48.152Z,66.40
2019-05-15T06:50:52.873Z,66.10
2019-05-15T06:53:58.394Z,66.10
2019-05-15T06:57:03.495Z,65.80
2019-05-15T07:00:10.550Z,65.60
2019-05-15T07:03:21.391Z,66.20
2019-05-15T07:06:22.378Z,66.50
2019-05-15T07:09:28.568Z,66.20
2019-05-15T07:12:33.619Z,66.00
2019-05-15T07:15:38.652Z,65.40
2019-05-15T07:18:43.586Z,64.50
2019-05-15T07:21:48.828Z,64.70
2019-05-15T07:24:53.981Z,64.30
2019-05-15T07:27:59.545Z,64.40
2019-05-15T07:31:04.595Z,63.90
2019-05-15T07:34:09.495Z,64.10
2019-05-15T07:37:15.220Z,63.80
2019-05-15T07:40:20.903Z,63.20
2019-05-15T07:43:27.930Z,63.20
2019-05-15T07:46:32.340Z,63.40
2019-05-15T07:49:38.873Z,63.50
2019-05-15T07:52:44.077Z,62.20
2019-05-15T07:55:50.619Z,61.10
2019-05-15T07:58:58.459Z,60.80
2019-05-15T08:02:02.839Z,60.70
2019-05-15T08:05:10.391Z,61.40
2019-05-15T08:08:18.191Z,61.20
2019-05-15T08:11:24.755Z,61.80
2019-05-15T08:14:29.184Z,61.00
2019-05-15T08:17:34.249Z,60.60
2019-05-15T08:20:39.178Z,59.60
2019-05-15T08:23:44.231Z,60.00
2019-05-15T08:26:49.364Z,59.80
2019-05-15T08:29:54.325Z,59.60
2019-05-15T08:32:59.385Z,59.20
2019-05-15T08:36:04.381Z,59.30
2019-05-15T08:39:12.155Z,59.60
2019-05-15T08:42:20.051Z,57.60
2019-05-15T08:45:27.883Z,56.90
2019-05-15T08:48:32.943Z,55.60
2019-05-15T08:51:38.319Z,52.10
2019-05-15T08:54:43.528Z,50.20
2019-05-15T08:57:55.685Z,49.80
2019-05-15T09:00:55.423Z,49.60
2019-05-15T09:04:00.690Z,49.50
2019-05-15T09:07:05.735Z,50.20
2019-05-15T09:10:11.362Z,48.90
2019-05-15T09:13:18.755Z,47.70
2019-05-15T09:16:23.200Z,47.40
2019-05-15T09:19:28.215Z,48.00
2019-05-15T09:22:33.180Z,47.70
2019-05-15T09:25:40.457Z,47.40
2019-05-15T09:28:45.353Z,46.50
2019-05-15T09:31:50.468Z,46.50
2019-05-15T09:34:55.683Z,45.80
2019-05-15T09:38:01.432Z,45.60
2019-05-15T09:41:08.706Z,45.50
2019-05-15T09:44:13.168Z,45.00
2019-05-15T09:47:18.862Z,45.40
2019-05-15T09:50:24.235Z,45.10
2019-05-15T09:53:29.146Z,44.90
2019-05-15T09:56:34.066Z,45.00
2019-05-15T09:59:39.230Z,45.10
2019-05-15T10:02:44.804Z,44.50
2019-05-15T10:05:49.962Z,45.30
2019-05-15T10:08:55.189Z,45.90
2019-05-15T10:12:00.302Z,44.30
2019-05-15T10:15:10.491Z,42.90
2019-05-15T10:18:12.576Z,42.90
2019-05-15T10:21:18.591Z,43.10
2019-05-15T10:24:24.525Z,42.70
2019-05-15T10:27:29.694Z,42.30
2019-05-15T10:30:34.931Z,42.80
2019-05-15T10:33:39.955Z,42.50
2019-05-15T10:36:44.841Z,43.30
2019-05-15T10:39:52.719Z,43.00
2019-05-15T10:42:59.309Z,43.20
2019-05-15T10:46:03.653Z,43.00
2019-05-15T10:49:08.917Z,43.40
2019-05-15T10:52:14.024Z,43.70
2019-05-15T10:55:19.376Z,43.80
2019-05-15T10:58:24.655Z,43.70
2019-05-15T11:01:29.842Z,44.30
2019-05-15T11:04:35.057Z,44.40
2019-05-15T11:07:40.145Z,44.30
2019-05-15T11:10:45.316Z,44.50
2019-05-15T11:13:50.722Z,44.70
2019-05-15T11:17:01.543Z,44.70
2019-05-15T11:20:08.403Z,44.70
2019-05-15T11:23:19.514Z,45.10
2019-05-15T11:26:23.851Z,45.10
2019-05-15T11:29:28.712Z,45.20
2019-05-15T11:32:34.467Z,45.60
2019-05-15T11:35:56.466Z,45.60
2019-05-15T11:38:48.213Z,46.60
2019-05-15T11:41:52.810Z,45.80
2019-05-15T11:45:03.594Z,52.00
2019-05-15T11:48:09.105Z,49.10
2019-05-15T11:51:14.124Z,50.50
2019-05-15T11:54:19.272Z,47.10
2019-05-15T11:57:37.275Z,47.70
2019-05-15T12:00:31.268Z,48.40
2019-05-15T12:03:38.530Z,45.90
2019-05-15T12:06:58.202Z,46.20
2019-05-15T12:09:50.693Z,46.80
2019-05-15T12:12:55.970Z,47.10
2019-05-15T12:16:01.839Z,47.20
2019-05-15T12:19:09.613Z,47.40
2019-05-15T12:22:14.260Z,48.00
2019-05-15T12:25:19.435Z,47.90
2019-05-15T12:28:24.557Z,47.40
2019-05-15T12:31:30.338Z,47.80
2019-05-15T12:34:38.637Z,47.90
2019-05-15T12:37:42.649Z,48.40
2019-05-15T13:02:35.439Z,51.20
2019-05-15T13:05:40.482Z,50.90
2019-05-15T13:08:45.705Z,50.90
2019-05-15T13:11:50.836Z,51.00
2019-05-15T13:14:55.999Z,51.60
2019-05-15T13:18:01.403Z,50.90
2019-05-15T13:21:06.432Z,51.20
2019-05-15T13:24:11.558Z,51.40
2019-05-15T13:27:18.230Z,50.40
2019-05-15T13:30:24.078Z,50.20
2019-05-15T13:33:28.961Z,50.40
2019-05-15T13:36:34.283Z,51.30
2019-05-15T13:39:39.344Z,52.30
2019-05-15T13:42:44.629Z,51.80
2019-05-15T13:45:50.041Z,52.50
2019-05-15T13:48:56.288Z,52.80
2019-05-15T13:52:01.643Z,52.70
2019-05-15T13:55:08.570Z,53.60
2019-05-15T13:58:14.369Z,52.50
2019-05-15T14:01:19.740Z,53.10
2019-05-15T14:04:24.710Z,53.00
2019-05-15T14:07:44.679Z,53.90
2019-05-15T14:10:38.582Z,54.40
2019-05-15T14:13:43.452Z,54.70
2019-05-15T14:16:49.071Z,55.40
2019-05-15T14:19:54.269Z,54.40
2019-05-15T14:22:59.785Z,54.80
2019-05-15T14:26:17.597Z,54.80
2019-05-15T14:29:11.559Z,55.70
2019-05-15T14:32:22.742Z,57.00
2019-05-15T14:35:23.372Z,56.80
2019-05-15T14:38:29.019Z,56.90
2019-05-15T14:41:34.183Z,56.90
2019-05-15T14:44:39.157Z,56.80
2019-05-15T14:47:44.662Z,56.80
2019-05-15T14:50:49.703Z,57.00
2019-05-15T14:53:55.029Z,57.30
2019-05-15T14:57:00.178Z,56.70
2019-05-15T15:00:05.628Z,56.10
2019-05-15T15:03:11.782Z,56.50
2019-05-15T15:06:18.177Z,56.00
2019-05-15T15:09:23.757Z,56.30
2019-05-15T15:12:28.960Z,56.00
2019-05-15T15:15:33.854Z,56.20
2019-05-15T15:18:39.242Z,57.20
2019-05-15T15:21:44.294Z,57.90
2019-05-15T15:24:49.318Z,57.60
2019-05-15T15:27:54.609Z,57.70
2019-05-15T15:30:59.773Z,58.10
2019-05-15T15:34:04.881Z,59.20
2019-05-15T15:37:09.840Z,59.80
2019-05-15T15:40:14.859Z,58.60
2019-05-15T15:43:20.227Z,58.60
2019-05-15T15:46:25.316Z,59.40
2019-05-15T15:49:30.282Z,59.00
2019-05-15T15:52:35.418Z,58.40
2019-05-15T15:55:40.767Z,58.60
2019-05-15T15:58:45.883Z,58.80
2019-05-15T16:01:52.241Z,58.50
2019-05-15T16:04:58.880Z,57.60
2019-05-15T16:08:03.929Z,57.90
2019-05-15T16:11:08.827Z,57.20
2019-05-15T16:14:13.793Z,57.00
2019-05-15T16:17:19.074Z,57.10
2019-05-15T16:20:24.328Z,56.40
2019-05-15T16:23:29.388Z,65.00
2019-05-15T16:26:34.841Z,68.60
2019-05-15T16:29:39.850Z,70.70
2019-05-15T16:32:44.912Z,73.20
2019-05-15T16:35:50.026Z,74.20
2019-05-15T16:39:05.075Z,74.70
2019-05-15T16:42:02.386Z,75.30
2019-05-15T16:45:09.384Z,75.60
2019-05-15T16:48:14.886Z,76.00
2019-05-15T16:51:19.844Z,76.90
2019-05-15T16:54:25.464Z,77.60
2019-05-15T16:57:30.755Z,78.50
2019-05-15T17:00:35.646Z,79.10
2019-05-15T17:03:40.618Z,79.20
2019-05-15T17:06:45.517Z,80.40
2019-05-15T17:09:50.667Z,81.30
2019-05-15T17:12:57.863Z,81.00
2019-05-15T17:16:02.309Z,81.60
2019-05-15T17:19:08.742Z,82.10
2019-05-15T17:22:13.897Z,82.30
2019-05-15T17:25:19.137Z,82.60
2019-05-15T17:28:24.181Z,82.60
2019-05-15T17:31:29.097Z,83.20
2019-05-15T17:34:34.460Z,83.60
2019-05-15T17:37:39.658Z,84.70
2019-05-15T17:40:44.722Z,85.60
2019-05-15T17:43:49.988Z,86.10
2019-05-15T17:46:55.070Z,86.20
2019-05-15T17:50:00.152Z,86.50
2019-05-15T17:53:05.586Z,87.10
2019-05-15T17:56:10.930Z,87.50
2019-05-15T17:59:17.752Z,87.30
2019-05-15T18:02:22.926Z,87.20
2019-05-15T18:05:28.436Z,87.50
2019-05-15T18:08:33.739Z,87.70
2019-05-15T18:11:38.871Z,88.00
2019-05-15T18:14:43.963Z,88.60
2019-05-15T18:17:49.119Z,88.70
2019-05-15T18:20:54.075Z,88.40
2019-05-15T18:23:59.045Z,88.70
2019-05-15T18:27:04.218Z,89.10
2019-05-15T18:30:09.824Z,89.00
2019-05-15T18:33:15.021Z,89.40
2019-05-15T18:36:20.237Z,89.30
2019-05-15T18:39:25.266Z,89.30
2019-05-15T18:42:30.468Z,89.20
2019-05-15T18:45:35.209Z,89.80
2019-05-15T18:48:40.092Z,89.80
2019-05-15T18:51:45.250Z,90.00
2019-05-15T18:54:51.913Z,88.30
2019-05-15T18:57:58.454Z,87.80
2019-05-15T19:01:04.026Z,87.90
2019-05-15T19:04:09.583Z,88.10
2019-05-15T19:07:14.703Z,87.80
2019-05-15T19:10:20.682Z,88.00
2019-05-15T19:13:25.702Z,88.00
2019-05-15T19:16:31.784Z,87.90
2019-05-15T19:19:38.842Z,87.50
2019-05-15T19:22:44.211Z,87.40
2019-05-15T19:25:49.367Z,87.40
2019-05-15T19:28:54.583Z,87.50
2019-05-15T19:32:04.492Z,87.70
2019-05-15T19:35:10.703Z,87.60
2019-05-15T19:38:18.233Z,87.90
2019-05-15T19:41:28.874Z,88.30
2019-05-15T19:44:33.863Z,88.50
2019-05-15T19:47:39.238Z,88.50
2019-05-15T19:50:44.382Z,88.50
2019-05-15T19:53:49.360Z,88.60
2019-05-15T19:56:54.547Z,88.30
2019-05-15T19:59:59.708Z,88.50
2019-05-15T20:03:04.462Z,88.70
2019-05-15T20:06:09.468Z,89.10
2019-05-15T20:09:14.529Z,89.20
2019-05-15T20:12:19.835Z,88.90
2019-05-15T20:15:25.000Z,88.80
2019-05-15T20:18:30.238Z,88.90
2019-05-15T20:21:35.223Z,89.90
2019-05-15T20:24:40.291Z,89.30
2019-05-15T20:27:47.972Z,89.30
2019-05-15T20:30:52.561Z,89.70
2019-05-15T20:34:05.544Z,90.00
2019-05-15T20:37:04.401Z,90.10
2019-05-15T20:40:09.682Z,90.30
2019-05-15T20:43:14.791Z,90.50
2019-05-15T20:46:19.922Z,90.60
2019-05-15T20:49:25.386Z,90.70
2019-05-15T20:52:30.606Z,90.60
2019-05-15T20:55:37.937Z,90.70
2019-05-15T20:58:42.497Z,90.80
2019-05-15T21:01:48.254Z,90.70
2019-05-15T21:04:54.611Z,90.80
2019-05-15T21:07:59.625Z,90.90
2019-05-15T21:11:04.698Z,90.90
2019-05-15T21:14:10.060Z,91.00
2019-05-15T21:17:15.137Z,90.90
2019-05-15T21:20:20.417Z,91.10
2019-05-15T21:23:25.826Z,91.30
2019-05-15T21:26:31.141Z,91.40
2019-05-15T21:29:38.154Z,91.40
2019-05-15T21:32:42.754Z,91.40
2019-05-15T21:35:47.815Z,91.20
2019-05-15T21:38:52.809Z,91.30
2019-05-15T21:41:58.521Z,91.20
2019-05-15T21:45:03.926Z,91.30
2019-05-15T21:48:09.156Z,91.30
2019-05-15T21:51:14.362Z,91.30
2019-05-15T21:54:19.617Z,91.20
2019-05-15T21:57:32.907Z,91.20
2019-05-15T22:00:38.309Z,91.40
2019-05-15T22:03:43.697Z,91.50
2019-05-15T22:06:49.263Z,91.50
2019-05-15T22:09:54.487Z,91.10
2019-05-15T22:12:59.350Z,90.50
2019-05-15T22:16:04.785Z,90.30
2019-05-15T22:19:10.668Z,89.40
2019-05-15T22:22:17.874Z,82.70
2019-05-15T22:25:22.610Z,77.80
2019-05-15T22:28:28.239Z,77.40
2019-05-15T22:31:33.529Z,77.20
2019-05-15T22:34:38.606Z,76.10
2019-05-15T22:37:43.653Z,75.40
2019-05-15T22:40:48.818Z,75.90
2019-05-15T22:43:53.906Z,76.60
2019-05-15T22:46:59.090Z,76.40
2019-05-15T22:50:04.011Z,75.40
2019-05-15T22:53:10.564Z,74.30
2019-05-15T22:56:18.094Z,72.50
2019-05-15T22:59:22.520Z,71.70
2019-05-15T23:02:27.449Z,69.40
2019-05-15T23:05:32.540Z,69.10
2019-05-15T23:08:38.398Z,66.90
2019-05-15T23:11:43.656Z,68.10
2019-05-15T23:14:48.673Z,68.70
2019-05-15T23:17:53.843Z,67.90
2019-05-15T23:20:59.449Z,67.10
2019-05-15T23:24:04.560Z,65.70
2019-05-15T23:27:09.368Z,65.70
2019-05-15T23:30:14.546Z,66.10
2019-05-15T23:33:19.490Z,65.00
2019-05-15T23:36:24.605Z,64.50
2019-05-15T23:39:30.220Z,64.40
2019-05-15T23:42:35.304Z,64.50
2019-05-15T23:45:40.262Z,63.90
2019-05-15T23:48:45.296Z,63.80
2019-05-15T23:51:50.274Z,64.20
2019-05-15T23:54:55.180Z,63.40
2019-05-15T23:58:00.638Z,63.40
